| time (UTC) | temp F | wind direction | speed MPH | gust MPH | rain 1hr in | rain 24hr in | rain mn in | humidity % | barometer mb |
| 20260503014058 | 66 | 338 | 7.0 | 15.0 | 0.01 | 0.13 | 0.13 | 82 | 1009.8 |
| 20260503013557 | 65 | 303 | 3.0 | 11.0 | 0.02 | 0.13 | 0.13 | 83 | 1009.6 |
| 20260503013053 | 65 | 315 | 3.0 | 16.0 | 0.02 | 0.13 | 0.13 | 83 | 1009.8 |
| 20260503012554 | 64 | 346 | 6.0 | 16.0 | 0.02 | 0.13 | 0.13 | 83 | 1009.8 |
| 20260503012051 | 64 | 323 | 8.0 | 15.0 | 0.02 | 0.13 | 0.13 | 84 | 1009.7 |
| 20260503011615 | 64 | 333 | 4.0 | 12.0 | 0.02 | 0.13 | 0.13 | 85 | 1009.5 |
| 20260503011054 | 64 | 21 | 4.0 | 15.0 | 0.02 | 0.13 | 0.13 | 85 | 1009.3 |
| 20260503010551 | 64 | 11 | 4.0 | 18.0 | 0.02 | 0.13 | 0.13 | 85 | 1009.4 |
| 20260503010050 | 64 | 333 | 9.0 | 18.0 | 0.02 | 0.13 | 0.13 | 86 | 1009.5 |
| 20260503005552 | 64 | 335 | 9.0 | 17.0 | 0.02 | 0.13 | 0.13 | 86 | 1009.5 |
| 20260503005050 | 64 | 17 | 4.0 | 14.0 | 0.02 | 0.13 | 0.13 | 86 | 1009.6 |
| 20260503004550 | 64 | 341 | 4.0 | 13.0 | 0.02 | 0.13 | 0.13 | 86 | 1009.8 |
| 20260503004049 | 64 | 313 | 6.0 | 14.0 | 0.00 | 0.11 | 0.11 | 86 | 1009.5 |
| 20260503003549 | 64 | 24 | 5.0 | 14.0 | 0.01 | 0.11 | 0.11 | 86 | 1009.8 |
| 20260503003050 | 64 | 13 | 5.0 | 13.0 | 0.02 | 0.11 | 0.11 | 86 | 1009.5 |
| 20260503002547 | 64 | 53 | 2.0 | 13.0 | 0.02 | 0.11 | 0.11 | 86 | 1009.4 |
| 20260503002046 | 63 | 80 | 2.0 | 11.0 | 0.02 | 0.11 | 0.11 | 87 | 1009.4 |
| 20260503001547 | 63 | 53 | 4.0 | 10.0 | 0.03 | 0.11 | 0.11 | 87 | 1009.6 |
| 20260503001046 | 63 | 345 | 2.0 | 14.0 | 0.03 | 0.11 | 0.11 | 87 | 1009.8 |
| 20260503000546 | 63 | 43 | 4.0 | 14.0 | 0.03 | 0.11 | 0.11 | 87 | 1009.7 |
| 20260503000041 | 63 | 61 | 2.0 | 9.0 | 0.03 | 0.11 | 0.11 | 87 | 1009.7 |
| 20260502235541 | 63 | 343 | 3.0 | 11.0 | 0.04 | 0.11 | 0.11 | 86 | 1010.0 |
| 20260502235041 | 63 | 319 | 2.0 | 11.0 | 0.04 | 0.11 | 0.11 | 86 | 1009.8 |
| 20260502234601 | 63 | 22 | 1.0 | 10.0 | 0.04 | 0.11 | 0.11 | 85 | 1009.5 |
| 20260502234041 | 63 | 337 | 2.0 | 11.0 | 0.04 | 0.11 | 0.11 | 85 | 1009.4 |
| 20260502233541 | 63 | 46 | 2.0 | 11.0 | 0.03 | 0.10 | 0.10 | 85 | 1009.2 |
| 20260502233039 | 63 | 32 | 4.0 | 8.0 | 0.02 | 0.09 | 0.09 | 84 | 1009.4 |
| 20260502232539 | 64 | 59 | 2.0 | 10.0 | 0.02 | 0.09 | 0.09 | 83 | 1009.8 |
| 20260502232039 | 64 | 49 | 4.0 | 10.0 | 0.02 | 0.09 | 0.09 | 83 | 1009.8 |
| 20260502231540 | 64 | 15 | 4.0 | 9.0 | 0.02 | 0.09 | 0.09 | 83 | 1010.3 |
| 20260502231040 | 64 | 350 | 4.0 | 11.0 | 0.01 | 0.08 | 0.08 | 82 | 1010.5 |
| 20260502230540 | 64 | 5 | 5.0 | 11.0 | 0.01 | 0.08 | 0.08 | 82 | 1010.3 |
| 20260502230039 | 64 | 17 | 4.0 | 13.0 | 0.01 | 0.08 | 0.08 | 82 | 1010.0 |
| 20260502225539 | 64 | 33 | 5.0 | 13.0 | 0.00 | 0.07 | 0.07 | 81 | 1010.3 |
| 20260502225043 | 64 | 13 | 5.0 | 11.0 | 0.00 | 0.07 | 0.07 | 81 | 1010.6 |
| 20260502224539 | 64 | 317 | 3.0 | 12.0 | 0.00 | 0.07 | 0.07 | 81 | 1010.6 |
| 20260502224039 | 64 | 66 | 6.0 | 12.0 | 0.00 | 0.07 | 0.07 | 81 | 1010.1 |
| 20260502223542 | 65 | 38 | 2.0 | 10.0 | 0.00 | 0.07 | 0.07 | 82 | 1009.9 |
| 20260502223042 | 64 | 72 | 3.0 | 14.0 | 0.00 | 0.07 | 0.07 | 83 | 1009.6 |
| 20260502222538 | 64 | 16 | 7.0 | 14.0 | 0.00 | 0.07 | 0.07 | 84 | 1009.4 |
| 20260502222040 | 64 | 36 | 7.0 | 13.0 | 0.00 | 0.07 | 0.07 | 85 | 1009.6 |
| 20260502221536 | 64 | 355 | 6.0 | 12.0 | 0.00 | 0.07 | 0.07 | 85 | 1009.6 |
| 20260502221036 | 63 | 34 | 5.0 | 12.0 | 0.00 | 0.07 | 0.07 | 86 | 1009.5 |
| 20260502220536 | 63 | 48 | 3.0 | 10.0 | 0.00 | 0.07 | 0.07 | 87 | 1009.4 |
| 20260502220035 | 63 | 40 | 3.0 | 12.0 | 0.00 | 0.07 | 0.07 | 86 | 1009.4 |
| 20260502215536 | 62 | 10 | 5.0 | 12.0 | 0.00 | 0.07 | 0.07 | 87 | 1009.8 |
| 20260502215033 | 62 | 57 | 4.0 | 10.0 | 0.00 | 0.07 | 0.07 | 87 | 1009.9 |
| 20260502214536 | 62 | 39 | 4.0 | 10.0 | 0.01 | 0.07 | 0.07 | 87 | 1009.9 |
| 20260502214035 | 62 | 54 | 4.0 | 10.0 | 0.01 | 0.07 | 0.07 | 87 | 1010.1 |
| 20260502213531 | 62 | 336 | 5.0 | 12.0 | 0.01 | 0.07 | 0.07 | 87 | 1009.9 |
| 20260502213039 | 62 | 82 | 6.0 | 12.0 | 0.01 | 0.07 | 0.07 | 87 | 1010.3 |
| 20260502212529 | 62 | 17 | 5.0 | 11.0 | 0.01 | 0.07 | 0.07 | 87 | 1010.5 |
| 20260502212028 | 62 | 69 | 4.0 | 13.0 | 0.01 | 0.07 | 0.07 | 87 | 1010.3 |
| 20260502211531 | 62 | 10 | 3.0 | 13.0 | 0.01 | 0.07 | 0.07 | 87 | 1010.3 |
| 20260502211026 | 62 | 360 | 4.0 | 11.0 | 0.01 | 0.07 | 0.07 | 86 | 1010.4 |
| 20260502210526 | 62 | 5 | 5.0 | 11.0 | 0.02 | 0.07 | 0.07 | 86 | 1010.5 |
| 20260502210026 | 62 | 61 | 4.0 | 14.0 | 0.03 | 0.07 | 0.07 | 86 | 1010.6 |
| 20260502205525 | 62 | 317 | 7.0 | 13.0 | 0.05 | 0.07 | 0.07 | 86 | 1010.7 |
| 20260502205024 | 62 | 346 | 3.0 | 10.0 | 0.06 | 0.07 | 0.07 | 86 | 1010.8 |
| 20260502204523 | 62 | 32 | 2.0 | 8.0 | 0.06 | 0.06 | 0.06 | 85 | 1010.6 |
| 20260502204023 | 62 | 28 | 2.0 | 9.0 | 0.06 | 0.06 | 0.06 | 85 | 1010.6 |
| 20260502203522 | 62 | 32 | 5.0 | 9.0 | 0.06 | 0.06 | 0.06 | 85 | 1010.6 |
| 20260502203026 | 62 | 43 | 4.0 | 9.0 | 0.06 | 0.06 | 0.06 | 84 | 1010.5 |
| 20260502202524 | 62 | 61 | 2.0 | 10.0 | 0.06 | 0.06 | 0.06 | 84 | 1010.3 |
| 20260502202023 | 63 | 69 | 2.0 | 10.0 | 0.06 | 0.06 | 0.06 | 83 | 1010.3 |
| 20260502201533 | 63 | 58 | 3.0 | 10.0 | 0.06 | 0.06 | 0.06 | 82 | 1010.1 |
| 20260502201023 | 63 | 29 | 4.0 | 10.0 | 0.06 | 0.06 | 0.06 | 81 | 1010.2 |
| 20260502200521 | 64 | 51 | 4.0 | 10.0 | 0.06 | 0.06 | 0.06 | 80 | 1010.2 |
| 20260502200019 | 64 | 13 | 3.0 | 7.0 | 0.04 | 0.04 | 0.04 | 79 | 1010.7 |
| 20260502195518 | 64 | 71 | 2.0 | 9.0 | 0.02 | 0.02 | 0.02 | 77 | 1010.9 |
| 20260502195017 | 64 | 45 | 3.0 | 10.0 | 0.01 | 0.01 | 0.01 | 76 | 1010.9 |
| 20260502194517 | 65 | 15 | 4.0 | 10.0 | 0.00 | 0.00 | 0.00 | 75 | 1011.1 |
| 20260502194016 | 65 | 5 | 5.0 | 11.0 | 0.00 | 0.00 | 0.00 | 75 | 1011.3 |
| 20260502193516 | 65 | 342 | 4.0 | 11.0 | 0.00 | 0.00 | 0.00 | 74 | 1011.6 |
| 20260502193012 | 65 | 26 | 4.0 | 13.0 | 0.00 | 0.00 | 0.00 | 74 | 1011.5 |
| 20260502192513 | 65 | 15 | 5.0 | 11.0 | 0.00 | 0.00 | 0.00 | 73 | 1011.4 |
| 20260502192010 | 65 | 332 | 4.0 | 13.0 | 0.00 | 0.00 | 0.00 | 73 | 1011.1 |
| 20260502191510 | 65 | 43 | 4.0 | 14.0 | 0.00 | 0.00 | 0.00 | 73 | 1011.1 |
| 20260502191009 | 65 | 298 | 5.0 | 14.0 | 0.00 | 0.00 | 0.00 | 73 | 1010.9 |
| 20260502190509 | 65 | 335 | 5.0 | 16.0 | 0.00 | 0.00 | 0.00 | 73 | 1010.7 |
| 20260502190009 | 65 | 17 | 6.0 | 17.0 | 0.00 | 0.00 | 0.00 | 73 | 1010.7 |
| 20260502185509 | 65 | 342 | 6.0 | 16.0 | 0.00 | 0.00 | 0.00 | 73 | 1010.8 |
| 20260502185007 | 65 | 40 | 8.0 | 16.0 | 0.00 | 0.00 | 0.00 | 73 | 1010.6 |
| 20260502184510 | 65 | 338 | 8.0 | 19.0 | 0.00 | 0.00 | 0.00 | 73 | 1010.2 |
| 20260502184005 | 65 | 12 | 8.0 | 19.0 | 0.00 | 0.00 | 0.00 | 73 | 1010.2 |
| 20260502183504 | 65 | 348 | 6.0 | 19.0 | 0.00 | 0.00 | 0.00 | 73 | 1010.1 |
| 20260502183006 | 65 | 31 | 7.0 | 19.0 | 0.00 | 0.00 | 0.00 | 73 | 1010.1 |
| 20260502182505 | 65 | 23 | 5.0 | 17.0 | 0.00 | 0.00 | 0.00 | 73 | 1010.1 |
| 20260502182003 | 65 | 312 | 4.0 | 15.0 | 0.00 | 0.00 | 0.00 | 73 | 1010.3 |
| 20260502181502 | 65 | 22 | 4.0 | 17.0 | 0.00 | 0.00 | 0.00 | 73 | 1010.2 |
| 20260502181002 | 65 | 331 | 9.0 | 17.0 | 0.00 | 0.00 | 0.00 | 72 | 1010.3 |
| 20260502180502 | 65 | 17 | 5.0 | 15.0 | 0.00 | 0.00 | 0.00 | 72 | 1010.3 |
| 20260502180106 | 65 | 33 | 6.0 | 13.0 | 0.00 | 0.00 | 0.00 | 72 | 1010.4 |
| 20260502164047 | 64 | 28 | 1.0 | 5.0 | 0.00 | 0.00 | 0.00 | 71 | 1012.1 |
| 20260502163546 | 64 | 5 | 0.0 | 3.0 | 0.00 | 0.00 | 0.00 | 71 | 1012.1 |
| 20260502163045 | 65 | 33 | 1.0 | 4.0 | 0.00 | 0.00 | 0.00 | 71 | 1012.0 |
| 20260502162545 | 65 | 39 | 1.0 | 5.0 | 0.00 | 0.00 | 0.00 | 71 | 1012.1 |
| 20260502162045 | 65 | 67 | 1.0 | 6.0 | 0.00 | 0.00 | 0.00 | 71 | 1012.1 |
| 20260502161544 | 65 | 355 | 1.0 | 5.0 | 0.00 | 0.00 | 0.00 | 71 | 1012.2 |
| 20260502161044 | 65 | 24 | 1.0 | 6.0 | 0.00 | 0.00 | 0.00 | 70 | 1012.2 |
| 20260502160545 | 65 | 317 | 2.0 | 6.0 | 0.00 | 0.00 | 0.00 | 70 | 1012.2 |
| 20260502152040 | 65 | 349 | 4.0 | 14.0 | 0.00 | 0.00 | 0.00 | 69 | 1012.6 |
| 20260502151601 | 65 | 15 | 5.0 | 14.0 | 0.00 | 0.00 | 0.00 | 69 | 1012.5 |
| 20260502151039 | 65 | 12 | 3.0 | 12.0 | 0.00 | 0.00 | 0.00 | 69 | 1012.5 |
| 20260502150539 | 65 | 340 | 4.0 | 16.0 | 0.00 | 0.00 | 0.00 | 69 | 1012.5 |
| 20260502130522 | 66 | 360 | 3.0 | 8.0 | 0.00 | 0.00 | 0.00 | 69 | 1013.5 |
| 20260502123520 | 66 | 322 | 2.0 | 8.0 | 0.00 | 0.00 | 0.00 | 68 | 1013.9 |
| 20260502123021 | 66 | 317 | 3.0 | 8.0 | 0.00 | 0.00 | 0.00 | 67 | 1013.9 |
| 20260502122520 | 66 | 350 | 3.0 | 8.0 | 0.00 | 0.00 | 0.00 | 67 | 1013.9 |
| 20260502122023 | 67 | 313 | 1.0 | 9.0 | 0.00 | 0.00 | 0.00 | 66 | 1013.8 |
| 20260502121522 | 67 | 275 | 3.0 | 9.0 | 0.00 | 0.00 | 0.00 | 66 | 1013.9 |
| 20260502121019 | 67 | 328 | 1.0 | 6.0 | 0.00 | 0.00 | 0.00 | 65 | 1013.9 |
| 20260502120521 | 67 | 355 | 1.0 | 9.0 | 0.00 | 0.00 | 0.00 | 65 | 1014.0 |
| 20260502115519 | 67 | 28 | 5.0 | 16.0 | 0.00 | 0.00 | 0.00 | 63 | 1013.9 |
| 20260502115019 | 68 | 47 | 4.0 | 16.0 | 0.00 | 0.00 | 0.00 | 63 | 1013.6 |
| 20260502114519 | 68 | 49 | 4.0 | 13.0 | 0.00 | 0.00 | 0.00 | 61 | 1013.6 |
| 20260502114026 | 68 | 20 | 5.0 | 14.0 | 0.00 | 0.00 | 0.00 | 60 | 1013.8 |
| 20260502113518 | 69 | 314 | 6.0 | 14.0 | 0.00 | 0.00 | 0.00 | 59 | 1014.0 |
| 20260502113019 | 69 | 5 | 3.0 | 15.0 | 0.00 | 0.00 | 0.00 | 58 | 1013.9 |
| 20260502112518 | 69 | 9 | 4.0 | 20.0 | 0.00 | 0.00 | 0.00 | 56 | 1014.2 |
| 20260502112017 | 69 | 316 | 7.0 | 20.0 | 0.00 | 0.00 | 0.00 | 55 | 1014.2 |
| 20260502111521 | 69 | 325 | 7.0 | 14.0 | 0.00 | 0.00 | 0.00 | 55 | 1014.3 |
| 20260502111018 | 69 | 330 | 6.0 | 13.0 | 0.00 | 0.00 | 0.00 | 55 | 1014.4 |
| 20260502110518 | 69 | 360 | 7.0 | 14.0 | 0.00 | 0.00 | 0.00 | 54 | 1014.5 |
| 20260502110018 | 69 | 337 | 5.0 | 14.0 | 0.00 | 0.00 | 0.00 | 54 | 1014.6 |
| 20260502105517 | 70 | 313 | 4.0 | 11.0 | 0.00 | 0.00 | 0.00 | 54 | 1014.6 |
| 20260502105018 | 70 | 325 | 6.0 | 11.0 | 0.00 | 0.00 | 0.00 | 53 | 1014.6 |
| 20260502104524 | 70 | 333 | 3.0 | 8.0 | 0.00 | 0.00 | 0.00 | 53 | 1014.4 |
| 20260502104017 | 70 | 355 | 2.0 | 8.0 | 0.00 | 0.00 | 0.00 | 53 | 1014.3 |
| 20260502103517 | 70 | 324 | 3.0 | 8.0 | 0.00 | 0.00 | 0.00 | 52 | 1014.3 |
| 20260502103017 | 70 | 327 | 2.0 | 9.0 | 0.00 | 0.00 | 0.00 | 52 | 1014.2 |
| 20260502102516 | 70 | 40 | 3.0 | 8.0 | 0.00 | 0.00 | 0.00 | 52 | 1014.1 |
| 20260502102015 | 70 | 334 | 2.0 | 8.0 | 0.00 | 0.00 | 0.00 | 52 | 1014.2 |
| 20260502101515 | 70 | 330 | 2.0 | 5.0 | 0.00 | 0.00 | 0.00 | 53 | 1014.2 |
| 20260502101014 | 69 | 329 | 1.0 | 5.0 | 0.00 | 0.00 | 0.00 | 53 | 1014.1 |
| 20260502100515 | 69 | 15 | 1.0 | 8.0 | 0.00 | 0.00 | 0.00 | 53 | 1014.0 |
| 20260502091517 | 69 | 14 | 0.0 | 2.0 | 0.00 | 0.00 | 0.00 | 53 | 1014.3 |
| 20260502091013 | 69 | 346 | 0.0 | 2.0 | 0.00 | 0.00 | 0.00 | 53 | 1014.4 |
| 20260502090513 | 69 | 346 | 0.0 | 2.0 | 0.00 | 0.00 | 0.00 | 52 | 1014.3 |
| 20260502071509 | 74 | 19 | 3.0 | 8.0 | 0.00 | 0.00 | 0.00 | 46 | 1013.8 |
| 20260502071009 | 74 | 30 | 4.0 | 8.0 | 0.00 | 0.00 | 0.00 | 46 | 1013.8 |
| 20260502070509 | 74 | 15 | 3.0 | 10.0 | 0.00 | 0.00 | 0.00 | 46 | 1013.9 |
| 20260502070009 | 74 | 323 | 4.0 | 11.0 | 0.00 | 0.00 | 0.00 | 46 | 1013.8 |
| 20260502065509 | 74 | 18 | 5.0 | 12.0 | 0.00 | 0.00 | 0.00 | 45 | 1013.8 |
| 20260502065013 | 74 | 21 | 6.0 | 12.0 | 0.00 | 0.00 | 0.00 | 45 | 1013.9 |
| 20260502064509 | 74 | 360 | 6.0 | 11.0 | 0.00 | 0.00 | 0.00 | 45 | 1013.9 |
| 20260502064008 | 74 | 11 | 5.0 | 12.0 | 0.00 | 0.00 | 0.00 | 45 | 1013.8 |
| 20260502063513 | 74 | 16 | 7.0 | 11.0 | 0.00 | 0.00 | 0.00 | 45 | 1013.8 |
| 20260502063017 | 74 | 18 | 3.0 | 14.0 | 0.00 | 0.00 | 0.00 | 45 | 1013.9 |
| 20260502062507 | 74 | 47 | 6.0 | 13.0 | 0.00 | 0.00 | 0.00 | 44 | 1013.8 |
| 20260502062009 | 74 | 17 | 8.0 | 13.0 | 0.00 | 0.00 | 0.00 | 44 | 1013.7 |
| 20260502061512 | 75 | 15 | 6.0 | 13.0 | 0.00 | 0.00 | 0.00 | 44 | 1013.8 |
| 20260502061008 | 75 | 29 | 4.0 | 15.0 | 0.00 | 0.00 | 0.00 | 43 | 1013.8 |
| 20260502060507 | 75 | 5 | 6.0 | 15.0 | 0.00 | 0.00 | 0.00 | 43 | 1013.8 |
| 20260502060020 | 75 | 34 | 5.0 | 13.0 | 0.00 | 0.00 | 0.00 | 43 | 1013.9 |
| 20260502055506 | 76 | 347 | 5.0 | 14.0 | 0.00 | 0.00 | 0.00 | 42 | 1013.9 |
| 20260502055006 | 76 | 9 | 7.0 | 17.0 | 0.00 | 0.00 | 0.00 | 42 | 1013.8 |
| 20260502054506 | 76 | 47 | 8.0 | 17.0 | 0.00 | 0.00 | 0.00 | 41 | 1013.9 |
| 20260502054005 | 77 | 42 | 8.0 | 15.0 | 0.00 | 0.00 | 0.00 | 40 | 1013.9 |
| 20260502053504 | 77 | 64 | 9.0 | 15.0 | 0.00 | 0.00 | 0.00 | 40 | 1013.9 |
| 20260502053003 | 78 | 32 | 7.0 | 13.0 | 0.00 | 0.00 | 0.00 | 40 | 1013.9 |
| 20260502052509 | 78 | 311 | 4.0 | 14.0 | 0.00 | 0.00 | 0.00 | 40 | 1014.0 |
| 20260502052003 | 78 | 5 | 8.0 | 23.0 | 0.00 | 0.00 | 0.00 | 40 | 1013.8 |
| 20260502051502 | 78 | 26 | 7.0 | 23.0 | 0.00 | 0.00 | 0.00 | 39 | 1013.9 |
| 20260502051006 | 78 | 11 | 7.0 | 16.0 | 0.00 | 0.00 | 0.00 | 40 | 1013.8 |
| 20260502050501 | 77 | 311 | 8.0 | 17.0 | 0.00 | 0.00 | 0.00 | 40 | 1013.9 |
| 20260502050003 | 78 | 331 | 8.0 | 17.0 | 0.00 | 0.00 | 0.00 | 39 | 1013.9 |
| 20260502045603 | 78 | 5 | 9.0 | 16.0 | 0.00 | 0.00 | 0.00 | 39 | 1013.9 |
| 20260502045101 | 78 | 5 | 9.0 | 16.0 | 0.00 | 0.00 | 0.00 | 39 | 1013.9 |
| 20260502044601 | 78 | 355 | 8.0 | 18.0 | 0.00 | 0.00 | 0.00 | 40 | 1013.9 |
| 20260502044059 | 78 | 5 | 10.0 | 18.0 | 0.00 | 0.00 | 0.00 | 40 | 1013.9 |
| 20260502043559 | 78 | 331 | 7.0 | 16.0 | 0.00 | 0.00 | 0.00 | 40 | 1013.9 |
| 20260502043159 | 78 | 34 | 8.0 | 15.0 | 0.00 | 0.00 | 0.00 | 40 | 1013.9 |
| 20260502042600 | 78 | 31 | 6.0 | 17.0 | 0.00 | 0.00 | 0.00 | 40 | 1014.0 |
| 20260502042058 | 78 | 24 | 7.0 | 17.0 | 0.00 | 0.00 | 0.00 | 40 | 1014.1 |
| 20260502041619 | 78 | 5 | 8.0 | 16.0 | 0.00 | 0.00 | 0.00 | 40 | 1014.0 |
| 20260502041059 | 78 | 360 | 8.0 | 19.0 | 0.00 | 0.00 | 0.00 | 40 | 1014.1 |
| 20260502040555 | 77 | 327 | 8.0 | 19.0 | 0.00 | 0.00 | 0.00 | 40 | 1014.2 |
| 20260502040058 | 77 | 271 | 5.0 | 18.0 | 0.00 | 0.00 | 0.00 | 41 | 1014.2 |
| 20260502035551 | 76 | 322 | 9.0 | 17.0 | 0.00 | 0.00 | 0.00 | 41 | 1014.2 |
| 20260502035051 | 75 | 350 | 9.0 | 17.0 | 0.00 | 0.00 | 0.00 | 43 | 1014.3 |
| 20260502034549 | 75 | 28 | 7.0 | 21.0 | 0.00 | 0.00 | 0.00 | 44 | 1014.4 |
| 20260502034048 | 74 | 15 | 11.0 | 21.0 | 0.00 | 0.00 | 0.00 | 43 | 1014.4 |
| 20260502033545 | 74 | 310 | 7.0 | 17.0 | 0.00 | 0.00 | 0.00 | 45 | 1014.6 |
| 20260502033147 | 74 | 28 | 7.0 | 14.0 | 0.00 | 0.00 | 0.00 | 45 | 1014.6 |
| 20260502032543 | 74 | 26 | 7.0 | 15.0 | 0.00 | 0.00 | 0.00 | 45 | 1014.8 |
| 20260502032041 | 73 | 338 | 6.0 | 15.0 | 0.00 | 0.00 | 0.00 | 45 | 1014.9 |
| 20260502031540 | 73 | 316 | 4.0 | 12.0 | 0.00 | 0.00 | 0.00 | 46 | 1014.9 |
| 20260502031040 | 73 | 51 | 3.0 | 11.0 | 0.00 | 0.00 | 0.00 | 45 | 1014.9 |
| 20260502030539 | 73 | 339 | 3.0 | 10.0 | 0.00 | 0.00 | 0.00 | 45 | 1015.1 |
| 20260502030050 | 73 | 341 | 5.0 | 10.0 | 0.00 | 0.00 | 0.00 | 47 | 1015.2 |
| 20260502025536 | 72 | 327 | 3.0 | 12.0 | 0.00 | 0.00 | 0.00 | 47 | 1015.2 |
| 20260502025034 | 72 | 21 | 4.0 | 11.0 | 0.00 | 0.00 | 0.00 | 47 | 1015.3 |
| 20260502024536 | 71 | 260 | 5.0 | 10.0 | 0.00 | 0.00 | 0.00 | 48 | 1015.4 |
| 20260502024033 | 71 | 329 | 4.0 | 9.0 | 0.00 | 0.00 | 0.00 | 49 | 1015.5 |
| 20260502023535 | 71 | 13 | 5.0 | 9.0 | 0.00 | 0.00 | 0.00 | 51 | 1015.6 |
| 20260502023142 | 70 | 21 | 1.0 | 4.0 | 0.00 | 0.00 | 0.00 | 51 | 1015.7 |
| 20260502022529 | 70 | 59 | 1.0 | 6.0 | 0.00 | 0.00 | 0.00 | 51 | 1015.8 |
| 20260502022028 | 70 | 13 | 2.0 | 6.0 | 0.00 | 0.00 | 0.00 | 51 | 1016.0 |
| 20260502021527 | 70 | 30 | 2.0 | 8.0 | 0.00 | 0.00 | 0.00 | 51 | 1016.0 |
| 20260502021030 | 70 | 53 | 2.0 | 6.0 | 0.00 | 0.00 | 0.00 | 51 | 1016.2 |
| 20260502020525 | 69 | 40 | 1.0 | 8.0 | 0.00 | 0.00 | 0.00 | 51 | 1016.4 |
| 20260502020024 | 69 | 70 | 5.0 | 11.0 | 0.00 | 0.00 | 0.00 | 51 | 1016.5 |
| 20260502015522 | 69 | 14 | 6.0 | 11.0 | 0.00 | 0.00 | 0.00 | 51 | 1016.7 |
| 20260502015022 | 69 | 61 | 4.0 | 11.0 | 0.00 | 0.00 | 0.00 | 52 | 1016.7 |